Weather observations for the past three days for
Estherville, Estherville Municipal Airport
Imperial (Metric)
Date Time (cdt) Wind (mph) Vis. (mi.) Weather Sky Cond. Temperature (ºF) Relative Humidity Wind Chill (°F) Heat Index (°F) Pressure Precipitation (in)
Air Dwpt 6 hour altimeter (in) sea level (mb) 1 hr 3 hr 6 hr
Max. Min.
06 01:49 NW 6 10.00 Fair CLR 32 19.9 61% 27 29.97 1015.8
06 00:49 NW 6 10.00 Fair CLR 34 19.9 50 33.1 56% 29 29.97 1015.6
05 23:49 NW 8 10.00 Fair CLR 37 19.9 50% 32 29.95 1015.1
05 22:49 N 9 10.00 Overcast OVC080 43 21 42% 38 29.95 1014.7
05 21:49 NW 12 10.00 Overcast OVC075 45 21 39% 40 29.93 1014.3
05 20:49 N 12 10.00 Overcast OVC075 46 19 34% 41 29.91 1013.4
05 19:49 NW 16 10.00 Overcast OVC080 48 19 32% 42 29.89 1012.9
05 18:49 NW 17 10.00 Overcast OVC075 50 19.9 54 48.9 30% 45 29.88 1012.6
05 17:49 NW 21 G 26 10.00 Overcast and Breezy OVC075 51.1 21 31% 29.87 1012.4
05 14:49 NW 20 G 28 10.00 Overcast OVC075 52 23 32% 29.88 1012.6
05 12:49 NW 8 G 28 10.00 Overcast BKN060 OVC075 48.9 23 50 34 36% 46 29.89 1012.8
05 11:49 NW 9 10.00 Mostly Cloudy BKN060 48.9 24.1 38% 45 29.88 1012.6
05 10:49 NW 10 10.00 A Few Clouds FEW050 FEW060 46.9 25 42% 43 29.88 1012.5
05 09:49 N 7 10.00 Fair CLR 45 27 49% 42 29.88 1012.4
05 08:49 N 6 10.00 Fair CLR 44.1 28 53% 41 29.86 1011.7
05 07:49 NW 7 10.00 Fair CLR 41 28 60% 37 29.85 1011.4
05 06:49 NW 7 10.00 Fair CLR 34 27 37 30 76% 29 29.84 1011.0
05 05:49 W 8 10.00 Fair CLR 30 24.1 79% 23 29.81 1010.0
05 04:49 NW 8 10.00 Fair CLR 30.9 25 79% 24 29.79 1009.5
05 03:49 NW 9 10.00 Fair CLR 30.9 24.1 76% 24 29.79 1009.3
05 02:49 NW 8 10.00 Fair CLR 33.1 24.1 70% 27 29.78 1008.8
05 01:49 W 6 10.00 Fair CLR 36 25 64% 32 29.77 1008.5
05 00:49 NW 8 10.00 Fair CLR 37 26.1 55.9 37 65% 32 29.78 1008.5
04 23:49 NW 6 10.00 Fair CLR 39 26.1 60% 35 29.78 1008.5
04 22:49 N 6 10.00 Fair CLR 45 25 46% 42 29.78 1008.4
04 21:49 NW 8 10.00 Fair CLR 48.9 24.1 38% 46 29.77 1007.9
04 20:49 NW 17 G 24 10.00 Fair CLR 51.1 25 36% 29.74 1007.2
04 19:49 NW 25 G 35 10.00 Fair and Breezy CLR 53.1 26.1 35% 29.72 1006.4
04 18:49 NW 23 G 32 10.00 A Few Clouds and Breezy FEW120 55.9 28 68 55.9 34% 29.69 1005.4
04 17:49 NW 29 G 38 10.00 Partly Cloudy and Windy SCT095 57.9 28 32% 29.67 1004.9
04 16:49 NW 22 G 35 10.00 Mostly Cloudy and Breezy BKN110 59 28.9 32% 29.66 1004.3
04 15:49 NW 30 G 41 7.00 Fair and Windy CLR 62.1 28 28% 29.64 1003.4
04 14:49 NW 26 G 38 10.00 Fair and Windy CLR 66.9 28.9 24% 29.63 1003.1
04 13:49 NW 22 G 37 10.00 Fair and Breezy CLR 66.9 27 22% 29.62 1002.8
04 12:49 NW 25 G 36 10.00 Fair and Breezy CLR 66.9 30 66.9 53.1 25% 29.6 1002.1
04 11:49 N 15 G 29 10.00 Fair CLR 64.9 30.9 28% 29.58 1001.6
04 10:49 NW 20 G 29 10.00 Fair CLR 64 33.1 32% 29.57 1001.1
04 09:49 N 22 G 30 10.00 Fair and Breezy CLR 63 39 41% 29.55 1000.5
04 08:49 W 22 G 30 10.00 Fair and Breezy CLR 64.9 37.9 37% 29.54 1000.0
04 07:49 SW 16 10.00 Fair CLR 57.9 36 44% 29.52 999.1
04 06:49 SW 15 10.00 Fair CLR 53.1 35.1 55.9 52 51% 29.52 999.2
04 05:49 SW 16 10.00 Partly Cloudy SCT100 54 34 47% 29.53 999.7
04 04:49 SW 14 10.00 Fair CLR 54 34 47% 29.55 1000.1
04 03:49 SW 15 10.00 Fair CLR 55 33.1 44% 29.56 1000.5
04 02:49 SW 10 10.00 Fair CLR 53.1 33.1 47% 29.59 1001.5
04 00:49 SW 9 10.00 Fair CLR 51.1 32 72 48.9 48% 29.64 1003.5
03 23:49 SW 8 10.00 Fair CLR 53.1 30.9 43% 29.66 1004.3
03 22:49 SW 8 10.00 Fair CLR 54 30 40% 29.69 1005.3
03 21:49 SW 9 10.00 Fair CLR 55 28.9 37% 29.72 1006.2
03 20:49 W 10 10.00 Fair CLR 60.1 28.9 31% 29.71 1005.9
03 19:49 W 9 10.00 Fair CLR 69.1 26.1 20% 29.71 1005.9
03 18:49 W 12 G 22 10.00 Fair CLR 72 27 73 68 19% 29.72 1006.1
03 17:49 NW 7 10.00 Fair CLR 71.1 28.9 21% 29.73 1006.7
03 16:49 NW 20 G 30 10.00 Fair CLR 72 26.1 18% 29.75 1007.2
03 15:49 NW 21 G 28 10.00 Fair and Breezy CLR 71.1 30.9 23% 29.77 1007.8
03 14:49 NW 18 G 28 10.00 Fair CLR 71.1 30.9 23% 29.79 1008.3
03 12:49 N 23 G 31 10.00 Fair and Breezy CLR 68 32 68 51.1 26% 29.81 1009.1
03 11:49 NW 24 G 32 10.00 Fair and Breezy CLR 66.9 34 30% 29.82 1009.4
03 10:49 N 28 G 38 10.00 Fair and Windy CLR 64.9 34 32% 29.81 1009.3
03 09:49 N 23 G 35 10.00 Fair and Breezy CLR 61 35.1 38% 29.8 1009.2
03 08:49 NW 28 G 35 10.00 Fair and Windy CLR 57.9 34 41% 29.79 1008.7
03 07:49 NW 18 G 30 10.00 Fair CLR 54 35.1 49% 29.77 1007.8
03 06:49 NW 15 10.00 Fair CLR 51.1 34 57 48 52% 29.74 1006.9
03 05:49 W 12 10.00 Fair CLR 48.9 30.9 50% 45 29.72 1006.5
03 04:49 SW 14 10.00 Fair CLR 52 30 43% 29.73 1006.5
03 03:49 W 15 10.00 Mostly Cloudy BKN120 54 28.9 38% 29.74 1007.0
03 02:49 SW 17 10.00 Fair CLR 55.9 28.9 36% 29.74 1007.0
Date Time (cdt) Wind (mph) Vis. (mi.) Weather Sky Cond. Air Dwpt Max. Min. Relative Humidity Wind Chill (°F) Heat Index (°F) altimeter (in) sea level (mb) 1 hr 3 hr 6 hr
6 hour
Temperature (ºF) Pressure Precipitation (in)